createdAt,value
2023-01-27T00:01:23.872Z,-1.89
2023-01-27T00:03:55.917Z,-1.97
2023-01-27T00:06:28.014Z,-1.89
2023-01-27T00:09:00.044Z,-1.94
2023-01-27T00:11:50.478Z,-1.86
2023-01-27T00:14:23.364Z,-1.93
2023-01-27T00:16:55.596Z,-1.98
2023-01-27T00:19:27.628Z,-1.84
2023-01-27T00:22:19.986Z,-1.86
2023-01-27T00:24:51.984Z,-1.85
2023-01-27T00:27:24.096Z,-1.85
2023-01-27T00:29:56.764Z,-1.87
2023-01-27T00:32:50.683Z,-1.85
2023-01-27T00:35:23.064Z,-1.98
2023-01-27T00:37:55.150Z,-1.96
2023-01-27T00:40:27.393Z,-1.93
2023-01-27T00:42:59.457Z,-1.88
2023-01-27T00:45:51.882Z,-1.84
2023-01-27T00:48:23.964Z,-1.90
2023-01-27T00:50:56.398Z,-1.84
2023-01-27T00:53:28.587Z,-1.80
2023-01-27T00:56:00.884Z,-1.73
2023-01-27T00:58:33.100Z,-1.77
2023-01-27T01:01:07.242Z,-1.71
2023-01-27T01:03:39.331Z,-1.73
2023-01-27T01:06:12.029Z,-1.68
2023-01-27T01:08:44.483Z,-1.78
2023-01-27T01:11:17.001Z,-1.83
2023-01-27T01:13:49.179Z,-1.91
2023-01-27T01:16:23.102Z,-2.12
2023-01-27T01:18:55.217Z,-2.10
2023-01-27T01:21:27.266Z,-2.07
2023-01-27T01:23:59.371Z,-2.07
2023-01-27T01:26:31.391Z,-2.08
2023-01-27T01:29:03.544Z,-2.05
2023-01-27T01:31:36.255Z,-2.04
2023-01-27T01:34:09.072Z,-2.00
2023-01-27T01:36:41.117Z,-2.16
2023-01-27T01:39:13.198Z,-2.00
2023-01-27T01:41:46.270Z,-1.95
2023-01-27T01:44:19.613Z,-1.89
2023-01-27T01:46:52.605Z,-1.81
2023-01-27T01:49:27.715Z,-1.81
2023-01-27T01:52:02.418Z,-1.81
2023-01-27T01:54:36.392Z,-1.79
2023-01-27T01:57:10.486Z,-1.71
2023-01-27T01:59:44.153Z,-1.63
2023-01-27T02:02:19.133Z,-1.61
2023-01-27T02:04:54.564Z,-1.61
2023-01-27T02:07:30.662Z,-1.64
2023-01-27T02:10:02.805Z,-1.58
2023-01-27T02:12:35.382Z,-1.60
2023-01-27T02:15:08.293Z,-1.52
2023-01-27T02:17:41.064Z,-1.51
2023-01-27T02:20:18.714Z,-1.47
2023-01-27T02:22:57.731Z,-1.51
2023-01-27T02:25:30.885Z,-1.71
2023-01-27T02:28:04.763Z,-1.71
2023-01-27T02:30:36.954Z,-1.55
2023-01-27T02:33:10.838Z,-1.47
2023-01-27T02:35:46.680Z,-1.44
2023-01-27T02:38:19.819Z,-1.43
2023-01-27T02:40:53.860Z,-1.45
2023-01-27T02:43:27.074Z,-1.39
2023-01-27T02:45:59.198Z,-1.36
2023-01-27T02:48:31.335Z,-1.32
2023-01-27T02:51:03.502Z,-1.31
2023-01-27T02:53:38.164Z,-1.41
2023-01-27T02:56:10.384Z,-1.32
2023-01-27T02:58:43.046Z,-1.34
2023-01-27T03:01:24.749Z,-1.33
2023-01-27T03:03:56.764Z,-1.33
2023-01-27T03:06:28.959Z,-1.27
2023-01-27T03:09:01.520Z,-1.26
2023-01-27T03:11:51.799Z,-1.26
2023-01-27T03:14:43.270Z,-1.25
2023-01-27T03:17:33.967Z,-1.28
2023-01-27T03:20:06.297Z,-1.20
2023-01-27T03:22:38.419Z,-1.26
2023-01-27T03:25:10.621Z,-1.21
2023-01-27T03:27:43.082Z,-1.17
2023-01-27T03:30:26.529Z,-1.14
2023-01-27T03:33:08.341Z,-1.15
2023-01-27T03:36:11.777Z,-1.28
2023-01-27T03:39:09.404Z,-1.39
2023-01-27T03:41:59.886Z,-1.33
2023-01-27T03:44:51.104Z,-1.26
2023-01-27T03:47:23.795Z,-1.23
2023-01-27T03:49:56.011Z,-1.19
2023-01-27T03:52:28.011Z,-1.17
2023-01-27T03:55:00.025Z,-1.11
2023-01-27T03:57:32.466Z,-1.09
2023-01-27T04:00:04.925Z,-1.11
2023-01-27T04:03:04.061Z,-1.16
2023-01-27T04:05:54.340Z,-1.29
2023-01-27T04:08:26.487Z,-1.30
2023-01-27T04:11:16.275Z,-1.37
2023-01-27T04:13:48.407Z,-1.53
2023-01-27T04:16:28.221Z,-1.51
2023-01-27T04:19:00.994Z,-1.70
2023-01-27T04:21:33.276Z,-1.77
2023-01-27T04:24:08.018Z,-1.93
2023-01-27T04:26:41.067Z,-1.82
2023-01-27T04:29:13.276Z,-1.84
2023-01-27T04:31:45.391Z,-1.79
2023-01-27T04:34:18.326Z,-1.78
2023-01-27T04:36:50.542Z,-1.75
2023-01-27T04:39:22.987Z,-1.78
2023-01-27T04:41:55.578Z,-1.68
2023-01-27T04:44:27.657Z,-1.63
2023-01-27T04:46:59.990Z,-1.68
2023-01-27T04:49:33.010Z,-1.62
2023-01-27T04:52:05.030Z,-1.58
2023-01-27T04:54:37.070Z,-1.58
2023-01-27T04:57:09.842Z,-1.68
2023-01-27T04:59:41.909Z,-1.64
2023-01-27T05:02:14.265Z,-1.64
2023-01-27T05:04:46.984Z,-1.69
2023-01-27T05:07:19.110Z,-1.80
2023-01-27T05:09:51.171Z,-1.62
2023-01-27T05:12:23.226Z,-1.55
2023-01-27T05:14:55.585Z,-1.61
2023-01-27T05:17:30.465Z,-1.58
2023-01-27T05:20:03.777Z,-1.52
2023-01-27T05:22:35.836Z,-1.63
2023-01-27T05:25:08.623Z,-1.56
2023-01-27T05:27:40.894Z,-1.50
2023-01-27T05:30:13.296Z,-1.44
2023-01-27T05:32:46.548Z,-1.40
2023-01-27T05:35:19.222Z,-1.50
2023-01-27T05:37:51.297Z,-1.55
2023-01-27T05:40:23.285Z,-1.58
2023-01-27T05:42:55.383Z,-1.66
2023-01-27T05:45:27.431Z,-1.61
2023-01-27T05:47:59.679Z,-1.79
2023-01-27T05:50:32.329Z,-1.69
2023-01-27T05:53:04.408Z,-1.65
2023-01-27T05:55:36.389Z,-1.70
2023-01-27T05:58:08.423Z,-1.71
2023-01-27T06:00:40.481Z,-1.70
2023-01-27T06:03:12.890Z,-1.55
2023-01-27T06:05:52.927Z,-1.58
2023-01-27T06:08:25.781Z,-1.48
2023-01-27T06:10:58.148Z,-1.40
2023-01-27T06:13:30.380Z,-1.39
2023-01-27T06:16:03.271Z,-1.34
2023-01-27T06:18:35.687Z,-1.23
2023-01-27T06:21:09.464Z,-1.14
2023-01-27T06:23:41.557Z,-1.08
2023-01-27T06:26:15.652Z,-1.02
2023-01-27T06:28:47.797Z,-0.97
2023-01-27T06:31:21.064Z,-0.91
2023-01-27T06:33:53.287Z,-0.91
2023-01-27T06:36:26.035Z,-0.90
2023-01-27T06:38:58.092Z,-0.88
2023-01-27T06:41:30.222Z,-0.81
2023-01-27T06:44:02.404Z,-0.75
2023-01-27T06:46:34.589Z,-0.73
2023-01-27T06:49:06.675Z,-0.76
2023-01-27T06:51:39.369Z,-0.76
2023-01-27T06:54:11.564Z,-0.71
2023-01-27T06:56:43.683Z,-0.66
2023-01-27T06:59:15.801Z,-0.60
2023-01-27T07:01:48.121Z,-0.58
2023-01-27T07:04:20.279Z,-0.53
2023-01-27T07:06:53.100Z,-0.54
2023-01-27T07:09:25.141Z,-0.51
2023-01-27T07:11:57.223Z,-0.53
2023-01-27T07:14:29.449Z,-0.64
2023-01-27T07:17:01.743Z,-0.62
2023-01-27T07:19:35.178Z,-0.62
2023-01-27T07:22:08.050Z,-0.71
2023-01-27T07:24:40.069Z,-0.70
2023-01-27T07:27:12.160Z,-0.79
2023-01-27T07:29:44.211Z,-0.69
2023-01-27T07:32:16.306Z,-0.61
2023-01-27T07:34:48.321Z,-0.52
2023-01-27T07:37:21.259Z,-0.48
2023-01-27T07:39:53.315Z,-0.42
2023-01-27T07:42:25.354Z,-0.47
2023-01-27T07:44:57.364Z,-0.48
2023-01-27T07:47:29.478Z,-0.35
2023-01-27T07:50:01.690Z,-0.31
2023-01-27T07:52:34.497Z,-0.37
2023-01-27T07:55:07.441Z,-0.29
2023-01-27T07:57:39.832Z,-0.20
2023-01-27T08:00:14.937Z,-0.29
2023-01-27T08:02:49.818Z,-0.22
2023-01-27T08:05:22.180Z,-0.23
2023-01-27T08:07:58.283Z,-0.25
2023-01-27T08:10:30.999Z,-0.37
2023-01-27T08:13:03.188Z,-0.33
2023-01-27T08:15:35.234Z,-0.32
2023-01-27T08:18:07.323Z,-0.31
2023-01-27T08:20:39.392Z,-0.26
2023-01-27T08:23:12.091Z,-0.19
2023-01-27T08:25:48.369Z,-0.12
2023-01-27T08:28:21.422Z,-0.12
2023-01-27T08:30:53.652Z,-0.08
2023-01-27T08:33:25.789Z,-0.22
2023-01-27T08:36:01.624Z,-0.22
2023-01-27T08:38:34.497Z,-0.24
2023-01-27T08:41:07.805Z,-0.26
2023-01-27T08:43:48.169Z,-0.39
2023-01-27T08:46:20.469Z,-0.38
2023-01-27T08:48:52.646Z,-0.40
2023-01-27T08:51:25.282Z,-0.42
2023-01-27T08:53:58.489Z,-0.31
2023-01-27T08:56:30.650Z,-0.31
2023-01-27T08:59:02.884Z,-0.38
2023-01-27T09:01:35.044Z,-0.51
2023-01-27T09:04:07.114Z,-0.50
2023-01-27T09:06:39.206Z,-0.47
2023-01-27T09:09:12.465Z,-0.46
2023-01-27T09:11:44.775Z,-0.49
2023-01-27T09:14:16.799Z,-0.66
2023-01-27T09:16:48.926Z,-0.63
2023-01-27T09:19:20.963Z,-0.56
2023-01-27T09:21:53.232Z,-0.49
2023-01-27T09:24:26.022Z,-0.57
2023-01-27T09:27:00.061Z,-0.53
2023-01-27T09:29:33.196Z,-0.64
2023-01-27T09:32:05.606Z,-0.61
2023-01-27T09:34:37.766Z,-0.54
2023-01-27T09:37:10.502Z,-0.66
2023-01-27T09:39:45.711Z,-0.75
2023-01-27T09:42:33.052Z,-0.70
2023-01-27T09:45:32.433Z,-0.61
2023-01-27T09:48:10.287Z,-0.47
2023-01-27T09:50:44.362Z,-0.54
2023-01-27T09:53:44.513Z,-0.54
2023-01-27T09:56:22.469Z,-0.70
2023-01-27T09:59:00.541Z,-0.75
2023-01-27T10:01:38.336Z,-0.77
2023-01-27T10:04:18.654Z,-0.64
2023-01-27T10:07:03.336Z,-0.65
2023-01-27T10:10:08.603Z,-0.58
2023-01-27T10:12:53.748Z,-0.57
2023-01-27T10:15:32.032Z,-0.34
2023-01-27T10:18:11.304Z,-0.46
2023-01-27T10:20:47.551Z,-0.46
2023-01-27T10:23:29.081Z,-0.38
2023-01-27T10:26:09.472Z,-0.31
2023-01-27T10:28:47.227Z,-0.33
2023-01-27T10:31:23.466Z,-0.29
2023-01-27T10:33:57.648Z,-0.24
2023-01-27T10:36:33.703Z,-0.22
2023-01-27T10:39:12.794Z,-0.22
2023-01-27T10:41:57.023Z,-0.31
2023-01-27T10:44:37.669Z,-0.29
2023-01-27T10:47:13.833Z,-0.36
2023-01-27T10:49:50.895Z,-0.28
2023-01-27T10:52:25.800Z,-0.35
2023-01-27T10:55:00.120Z,-0.47
2023-01-27T10:57:34.793Z,-0.58
2023-01-27T11:00:41.897Z,-0.64
2023-01-27T11:03:10.358Z,-0.62
2023-01-27T11:05:44.420Z,-0.59
2023-01-27T11:08:18.755Z,-0.61
2023-01-27T11:11:11.366Z,-0.51
2023-01-27T11:13:43.678Z,-0.62
2023-01-27T11:16:17.752Z,-0.62
2023-01-27T11:18:55.305Z,-0.64
2023-01-27T11:21:30.137Z,-0.63
2023-01-27T11:24:11.875Z,-0.49
2023-01-27T11:26:46.325Z,-0.65
2023-01-27T11:29:21.428Z,-0.73
2023-01-27T11:31:56.907Z,-0.76
2023-01-27T11:34:33.198Z,-0.81
2023-01-27T11:37:12.675Z,-0.77
2023-01-27T11:39:44.933Z,-0.79
2023-01-27T11:42:17.577Z,-0.77
2023-01-27T11:44:50.750Z,-0.60
2023-01-27T11:47:24.704Z,-0.59
2023-01-27T11:49:57.347Z,-0.50
2023-01-27T11:52:29.429Z,-0.46
2023-01-27T11:55:04.930Z,-0.41
2023-01-27T11:57:41.121Z,-0.44
2023-01-27T12:00:19.613Z,-0.42
2023-01-27T12:02:54.971Z,-0.34
2023-01-27T12:05:30.360Z,-0.25
2023-01-27T12:08:03.925Z,-0.31
2023-01-27T12:10:38.169Z,-0.41
2023-01-27T12:13:15.852Z,-0.52
2023-01-27T12:15:49.196Z,-0.43
2023-01-27T12:18:22.970Z,-0.42
2023-01-27T12:20:58.918Z,-0.36
2023-01-27T12:23:33.355Z,-0.40
2023-01-27T12:26:06.816Z,-0.61
2023-01-27T12:28:41.515Z,-0.51
2023-01-27T12:31:17.766Z,-0.49
2023-01-27T12:33:58.172Z,-0.38
2023-01-27T12:36:36.381Z,-0.37
2023-01-27T12:39:23.934Z,-0.23
2023-01-27T12:41:56.003Z,-0.34
2023-01-27T12:44:39.666Z,-0.32
2023-01-27T12:47:21.074Z,-0.43
2023-01-27T12:50:15.001Z,-0.29
2023-01-27T12:52:52.142Z,-0.55
2023-01-27T12:55:27.898Z,-0.60
2023-01-27T12:58:00.425Z,-0.40
2023-01-27T13:00:33.727Z,-0.34
2023-01-27T13:03:11.377Z,-0.32
2023-01-27T13:05:45.104Z,-0.54
2023-01-27T13:08:18.927Z,-0.66
2023-01-27T13:10:52.098Z,-0.59
2023-01-27T13:13:24.763Z,-0.66
2023-01-27T13:16:00.146Z,-0.69
2023-01-27T13:18:33.638Z,-0.57
2023-01-27T13:21:10.950Z,-0.62
2023-01-27T13:23:44.368Z,-0.55
2023-01-27T13:26:18.235Z,-0.45
2023-01-27T13:28:53.684Z,-0.62
2023-01-27T13:31:33.881Z,-0.62
2023-01-27T13:34:13.587Z,-0.56
2023-01-27T13:36:48.647Z,-0.76
2023-01-27T13:39:27.702Z,-0.71
2023-01-27T13:42:07.309Z,-0.73
2023-01-27T13:44:41.452Z,-0.80
2023-01-27T13:47:16.389Z,-0.71
2023-01-27T13:49:51.947Z,-0.85
2023-01-27T13:52:24.850Z,-0.71
2023-01-27T13:54:57.340Z,-0.72
2023-01-27T13:57:42.762Z,-0.81
2023-01-27T14:00:19.931Z,-0.85
2023-01-27T14:03:10.919Z,-0.78
2023-01-27T14:05:57.746Z,-0.73
2023-01-27T14:08:44.638Z,-0.63
2023-01-27T14:11:20.507Z,-0.73
2023-01-27T14:13:59.130Z,-0.72
2023-01-27T14:16:37.622Z,-0.73
2023-01-27T14:19:20.056Z,-0.87
2023-01-27T14:21:56.875Z,-0.81
2023-01-27T14:24:35.818Z,-0.71
2023-01-27T14:27:11.855Z,-0.66
2023-01-27T14:29:46.772Z,-0.73
2023-01-27T14:32:25.836Z,-0.68
2023-01-27T14:35:15.768Z,-0.67
2023-01-27T14:37:53.361Z,-0.72
2023-01-27T14:40:28.931Z,-0.72
2023-01-27T14:43:06.691Z,-0.69
2023-01-27T14:45:40.569Z,-0.77
2023-01-27T14:48:21.367Z,-1.16
2023-01-27T14:51:02.307Z,-1.03
2023-01-27T14:53:47.561Z,-1.09
2023-01-27T14:56:27.004Z,-1.01
2023-01-27T14:59:01.502Z,-1.01
2023-01-27T15:01:39.314Z,-0.80
2023-01-27T15:04:26.510Z,-0.95
2023-01-27T15:07:02.391Z,-0.99
2023-01-27T15:09:44.073Z,-0.98
2023-01-27T15:12:36.192Z,-0.91
2023-01-27T15:15:26.980Z,-0.94
2023-01-27T15:18:08.421Z,-0.99
2023-01-27T15:21:02.705Z,-0.96
2023-01-27T15:23:40.829Z,-1.10
2023-01-27T15:26:16.443Z,-1.42
2023-01-27T15:28:49.399Z,-1.24
2023-01-27T15:31:23.243Z,-1.31
2023-01-27T15:33:56.195Z,-1.14
2023-01-27T15:36:32.770Z,-1.15
2023-01-27T15:39:20.237Z,-1.27
2023-01-27T15:42:09.800Z,-1.27
2023-01-27T15:44:58.359Z,-1.14
2023-01-27T15:47:31.477Z,-1.13
2023-01-27T15:50:10.976Z,-1.15
2023-01-27T15:52:44.181Z,-1.17
2023-01-27T15:55:24.573Z,-1.33
2023-01-27T15:58:03.798Z,-1.43
2023-01-27T16:00:38.105Z,-1.33
2023-01-27T16:03:17.108Z,-1.28
2023-01-27T16:05:51.414Z,-1.30
2023-01-27T16:08:24.864Z,-1.22
2023-01-27T16:11:11.668Z,-1.25
2023-01-27T16:13:44.607Z,-1.18
2023-01-27T16:16:37.796Z,-1.33
2023-01-27T16:19:17.923Z,-1.49
2023-01-27T16:21:52.464Z,-1.42
2023-01-27T16:24:28.484Z,-1.36
2023-01-27T16:27:05.599Z,-1.26
2023-01-27T16:29:39.308Z,-1.19
2023-01-27T16:32:14.704Z,-1.14
2023-01-27T16:34:49.392Z,-0.92
2023-01-27T16:37:23.735Z,-0.96
2023-01-27T16:40:00.429Z,-0.91
2023-01-27T16:42:33.850Z,-0.93
2023-01-27T16:45:15.504Z,-0.81
2023-01-27T16:47:50.823Z,-0.78
2023-01-27T16:50:31.631Z,-0.73
2023-01-27T16:53:04.197Z,-0.80
2023-01-27T16:55:36.298Z,-0.74
2023-01-27T16:58:17.549Z,-0.76
2023-01-27T17:00:51.381Z,-0.79
2023-01-27T17:03:27.595Z,-0.86
2023-01-27T17:06:01.983Z,-1.08
2023-01-27T17:08:42.429Z,-1.11
2023-01-27T17:11:17.099Z,-1.18
2023-01-27T17:13:50.240Z,-1.00
2023-01-27T17:16:24.928Z,-0.96
2023-01-27T17:19:01.402Z,-0.92
2023-01-27T17:21:36.911Z,-0.98
2023-01-27T17:24:15.965Z,-1.11
2023-01-27T17:26:49.187Z,-1.16
2023-01-27T17:29:22.558Z,-1.23
2023-01-27T17:31:55.296Z,-1.19
2023-01-27T17:34:28.457Z,-1.12
2023-01-27T17:37:14.843Z,-1.14
2023-01-27T17:39:47.466Z,-1.01
2023-01-27T17:42:20.522Z,-1.06
2023-01-27T17:44:52.582Z,-0.94
2023-01-27T17:47:24.643Z,-1.11
2023-01-27T17:49:57.364Z,-1.07
2023-01-27T17:52:31.433Z,-1.09
2023-01-27T17:55:05.193Z,-1.17
2023-01-27T17:57:38.702Z,-1.19
2023-01-27T18:00:17.584Z,-1.21
2023-01-27T18:02:54.043Z,-1.17
2023-01-27T18:05:28.953Z,-1.16
2023-01-27T18:08:03.192Z,-1.15
2023-01-27T18:10:37.538Z,-1.16
2023-01-27T18:13:21.258Z,-1.09
2023-01-27T18:15:58.878Z,-1.24
2023-01-27T18:18:31.900Z,-1.16
2023-01-27T18:21:05.549Z,-1.00
2023-01-27T18:23:44.055Z,-0.98
2023-01-27T18:26:18.872Z,-0.88
2023-01-27T18:28:53.310Z,-0.86
2023-01-27T18:31:29.509Z,-1.08
2023-01-27T18:34:14.249Z,-1.15
2023-01-27T18:36:52.309Z,-1.08
2023-01-27T18:39:27.935Z,-0.99
2023-01-27T18:42:01.522Z,-1.02
2023-01-27T18:44:37.768Z,-0.92
2023-01-27T18:47:24.913Z,-0.97
2023-01-27T18:49:59.156Z,-0.90
2023-01-27T18:52:31.180Z,-0.76
2023-01-27T18:55:12.481Z,-0.70
2023-01-27T18:57:46.911Z,-0.71
2023-01-27T19:00:21.882Z,-0.71
2023-01-27T19:02:56.477Z,-0.71
2023-01-27T19:05:31.141Z,-0.59
2023-01-27T19:08:04.064Z,-0.59
2023-01-27T19:10:38.415Z,-0.64
2023-01-27T19:13:10.860Z,-0.72
2023-01-27T19:15:47.762Z,-0.75
2023-01-27T19:18:22.395Z,-0.74
2023-01-27T19:20:56.196Z,-0.64
2023-01-27T19:23:28.640Z,-0.66
2023-01-27T19:26:02.961Z,-0.53
2023-01-27T19:28:35.929Z,-0.47
2023-01-27T19:31:09.049Z,-0.57
2023-01-27T19:33:46.709Z,-0.57
2023-01-27T19:36:21.760Z,-0.58
2023-01-27T19:38:57.566Z,-0.63
2023-01-27T19:41:30.847Z,-0.61
2023-01-27T19:44:03.305Z,-0.63
2023-01-27T19:46:36.220Z,-0.63
2023-01-27T19:49:13.905Z,-0.72
2023-01-27T19:51:45.976Z,-0.75
2023-01-27T19:54:18.161Z,-0.87
2023-01-27T19:56:50.983Z,-0.94
2023-01-27T19:59:23.179Z,-0.92
2023-01-27T20:01:56.213Z,-0.81
2023-01-27T20:04:29.086Z,-0.67
2023-01-27T20:07:01.663Z,-0.92
2023-01-27T20:09:33.856Z,-0.94
2023-01-27T20:12:10.564Z,-1.00
2023-01-27T20:14:42.915Z,-0.86
2023-01-27T20:17:15.210Z,-0.90
2023-01-27T20:19:49.097Z,-1.09
2023-01-27T20:22:21.693Z,-1.15
2023-01-27T20:24:53.938Z,-1.10
2023-01-27T20:27:26.851Z,-1.14
2023-01-27T20:29:59.031Z,-1.28
2023-01-27T20:32:31.117Z,-1.13
2023-01-27T20:35:03.319Z,-1.07
2023-01-27T20:37:35.400Z,-0.96
2023-01-27T20:40:08.602Z,-1.10
2023-01-27T20:42:41.537Z,-1.10
2023-01-27T20:45:14.136Z,-1.08
2023-01-27T20:47:47.980Z,-1.04
2023-01-27T20:50:20.608Z,-1.04
2023-01-27T20:52:52.912Z,-1.03
2023-01-27T20:55:25.213Z,-1.03
2023-01-27T20:57:57.899Z,-1.28
2023-01-27T21:00:29.948Z,-1.08
2023-01-27T21:03:03.492Z,-1.04
2023-01-27T21:05:35.549Z,-1.12
2023-01-27T21:08:07.614Z,-1.26
2023-01-27T21:10:40.141Z,-1.14
2023-01-27T21:13:13.072Z,-1.13
2023-01-27T21:15:46.140Z,-1.10
2023-01-27T21:18:18.355Z,-1.23
2023-01-27T21:20:51.489Z,-1.31
2023-01-27T21:23:23.706Z,-1.19
2023-01-27T21:25:55.776Z,-1.17
2023-01-27T21:28:28.424Z,-1.14
2023-01-27T21:31:04.371Z,-1.24
2023-01-27T21:33:37.386Z,-1.33
2023-01-27T21:36:10.868Z,-1.31
2023-01-27T21:38:43.195Z,-1.19
2023-01-27T21:41:37.282Z,-1.13
2023-01-27T21:44:46.872Z,-1.23
2023-01-27T21:47:19.174Z,-1.31
2023-01-27T21:50:00.035Z,-1.52
2023-01-27T21:52:34.025Z,-1.51
2023-01-27T21:55:07.209Z,-1.51
2023-01-27T21:57:39.546Z,-1.73
2023-01-27T22:00:13.024Z,-1.73
2023-01-27T22:02:51.473Z,-1.71
2023-01-27T22:05:24.028Z,-1.75
2023-01-27T22:07:56.177Z,-1.64
2023-01-27T22:10:29.165Z,-1.53
2023-01-27T22:13:02.991Z,-1.46
2023-01-27T22:15:36.012Z,-1.40
2023-01-27T22:18:08.512Z,-1.67
2023-01-27T22:20:40.596Z,-1.64
2023-01-27T22:23:12.860Z,-1.58
2023-01-27T22:25:47.287Z,-1.53
2023-01-27T22:28:19.752Z,-1.53
2023-01-27T22:30:52.744Z,-1.52
2023-01-27T22:33:24.826Z,-1.62
2023-01-27T22:36:00.189Z,-1.71
2023-01-27T22:38:36.702Z,-1.75
2023-01-27T22:41:08.762Z,-1.57
2023-01-27T22:43:40.799Z,-1.60
2023-01-27T22:46:13.505Z,-1.55
2023-01-27T22:48:47.056Z,-1.42
2023-01-27T22:51:19.067Z,-1.32
2023-01-27T22:53:51.122Z,-1.29
2023-01-27T22:56:23.101Z,-1.40
2023-01-27T22:58:55.237Z,-1.37
2023-01-27T23:01:29.217Z,-1.70
2023-01-27T23:04:01.740Z,-1.56
2023-01-27T23:06:33.771Z,-1.44
2023-01-27T23:09:05.835Z,-1.47
2023-01-27T23:11:37.919Z,-1.37
2023-01-27T23:14:09.894Z,-1.43
2023-01-27T23:16:45.593Z,-1.40
2023-01-27T23:19:17.764Z,-1.45
2023-01-27T23:21:49.841Z,-1.47
2023-01-27T23:24:22.004Z,-1.50
2023-01-27T23:26:54.080Z,-1.40
2023-01-27T23:29:27.791Z,-1.36
2023-01-27T23:32:01.919Z,-1.29
2023-01-27T23:34:34.236Z,-1.24
2023-01-27T23:37:06.409Z,-1.25
2023-01-27T23:39:38.544Z,-1.14
2023-01-27T23:42:10.566Z,-1.39
2023-01-27T23:44:42.639Z,-1.50
2023-01-27T23:47:15.907Z,-1.36
2023-01-27T23:49:48.016Z,-1.27
2023-01-27T23:52:20.013Z,-1.28
2023-01-27T23:54:52.038Z,-1.59
2023-01-27T23:57:24.030Z,-1.37
2023-01-27T23:59:56.105Z,-1.27
